Flight Track Log - Related Links

Times and Time Zones

All times are in EDT time to prevent confusion due to time zone crossing. See the SWA232 flight status page for this flight to view local times or setup timezone preferences in your user account.

Time Position Orientation Groundspeed Altitude Reporting Facility
EDT Latitude Longitude Course Direction KTS MPH feet Rate Location/Type
Mon 11:47:33 PM 39.3000 -94.7000 275° West 159 183 1,800  Level Kansas City TRACON
Mon 11:48:56 PM 39.3039 -94.7622 275° West 232 267 6,100 3,542 Climbing Kansas City Center
Mon 11:49:57 PM 39.2333 -94.7861 195° South 256 295 10,300 3,492 Climbing Kansas City Center
Mon 11:50:58 PM 39.1467 -94.8142 194° South 319 367 13,200 3,122 Climbing Kansas City Center
Mon 11:52:00 PM 39.0614 -94.8417 194° South 328 377 16,700 2,585 Climbing Kansas City Center
Mon 11:53:01 PM 38.9639 -94.8736 194° South 359 413 18,500 2,164 Climbing Kansas City Center
Mon 11:54:02 PM 38.8569 -94.9072 194° South 387 445 21,100 2,557 Climbing Kansas City Center
Mon 11:55:03 PM 38.7489 -94.9425 194° South 398 458 23,700 2,410 Climbing Kansas City Center
Mon 11:56:04 PM 38.6392 -94.9781 194° South 403 464 26,000 2,146 Climbing Kansas City Center
Mon 11:57:06 PM 38.5281 -95.0131 194° South 407 468 28,100 1,951 Climbing Kansas City Center
Mon 11:58:07 PM 38.4169 -95.0481 194° South 408 470 30,000 2,164 Climbing Kansas City Center
Mon 11:59:08 PM 38.3092 -95.0831 194° South 403 464 32,500 1,967 Climbing Kansas City Center
Tue 12:00:09 AM 38.1836 -95.0939 184° South 384 442 34,000 738 Climbing Kansas City Center
Tue 12:01:10 AM 38.0789 -95.1042 184° South 381 438 34,000  Level Kansas City Center
Tue 12:02:11 AM 37.9744 -95.1131 184° South 380 437 34,000  Level Kansas City Center
Tue 12:03:13 AM 37.8711 -95.1217 184° South 375 432 34,000  Level Kansas City Center
Tue 12:04:14 AM 37.7667 -95.1339 185° South 375 432 34,000  Level Kansas City Center
Tue 12:05:15 AM 37.6619 -95.1447 185° South 375 432 34,000  Level Kansas City Center
Tue 12:06:16 AM 37.5569 -95.1531 184° South 375 432 34,000  Level Kansas City Center
Tue 12:07:17 AM 37.4489 -95.1619 184° South 382 440 34,000  Level Kansas City Center
Tue 12:08:18 AM 37.3414 -95.1719 184° South 383 441 34,000  Level Kansas City Center
Tue 12:09:20 AM 37.2336 -95.1817 184° South 385 443 34,000  Level Kansas City Center
Tue 12:10:21 AM 37.1261 -95.1911 184° South 386 444 34,000  Level Kansas City Center
Tue 12:11:22 AM 36.9956 -95.2044 185° South 388 447 34,000  Level Kansas City Center
Tue 12:12:23 AM 36.8869 -95.2142 184° South 389 448 34,000  Level Kansas City Center
Tue 12:13:24 AM 36.7792 -95.2256 185° South 389 448 34,000  Level Kansas City Center
Tue 12:14:25 AM 36.6686 -95.2353 184° South 389 448 34,000  Level Kansas City Center
Tue 12:16:36 AM 36.4428 -95.2547 184° South 400 460 34,000  Level Fort Worth Center
Tue 12:17:41 AM 36.3000 -95.2664 184° South 407 468 34,000  Level Kansas City Center
Tue 12:18:42 AM 36.1861 -95.2761 184° South 407 468 34,000  Level Kansas City Center
Tue 12:19:43 AM 36.0742 -95.2869 184° South 407 468 34,000  Level Kansas City Center
Tue 12:20:44 AM 35.9625 -95.3006 186° South 407 468 34,000  Level Kansas City Center
Tue 12:21:40 AM 35.8736 -95.3089 184° South 405 466 34,000  Level Fort Worth Center
Tue 12:22:41 AM 35.7614 -95.3192 184° South 404 465 34,000 -446 Level Fort Worth Center
Tue 12:23:41 AM 35.6492 -95.3292 184° South 404 465 33,100 -496 Descending Fort Worth Center
Tue 12:24:42 AM 35.5131 -95.3419 184° South 405 466 33,000 -49 Descending Fort Worth Center
Tue 12:25:43 AM 35.3992 -95.3500 183° South 406 467 33,000  Level Fort Worth Center
Tue 12:26:47 AM 35.2833 -95.3603 184° South 409 471 33,000  Level Memphis Center
Tue 12:27:48 AM 35.1700 -95.3700 184° South 410 472 33,000  Level Memphis Center
Tue 12:28:49 AM 35.0544 -95.3794 184° South 410 472 33,000  Level Memphis Center
Tue 12:29:50 AM 34.9436 -95.4192 196° South 413 475 33,000 -102 Level Memphis Center
Tue 12:30:47 AM 34.8378 -95.4778 204° Southwest 419 482 32,800 -610 Descending Fort Worth Center
Tue 12:31:48 AM 34.7306 -95.5364 204° Southwest 419 482 31,800 -984 Descending Fort Worth Center
Tue 12:32:49 AM 34.6264 -95.5958 205° Southwest 420 483 30,800 -1,033 Descending Fort Worth Center
Tue 12:33:50 AM 34.5236 -95.6525 204° Southwest 408 470 29,700 -1,033 Descending Fort Worth Center
Tue 12:34:51 AM 34.4281 -95.7050 204° Southwest 384 442 28,700 -1,041 Descending Fort Worth Center
Tue 12:35:51 AM 34.3328 -95.7561 204° Southwest 378 435 27,600 -1,041 Descending Fort Worth Center
Tue 12:36:52 AM 34.2394 -95.8075 204° Southwest 371 427 26,600 -984 Descending Fort Worth Center
Tue 12:37:53 AM 34.1453 -95.8586 204° Southwest 370 426 25,600 -1,082 Descending Fort Worth Center
Tue 12:38:54 AM 34.0389 -95.9172 205° Southwest 369 425 24,400 -1,082 Descending Fort Worth Center
Tue 12:39:55 AM 33.9486 -95.9656 204° Southwest 359 413 23,400 -984 Descending Fort Worth Center
Tue 12:40:56 AM 33.8564 -96.0161 204° Southwest 359 413 22,400 -992 Descending Fort Worth Center
Tue 12:41:56 AM 33.7619 -96.0658 204° Southwest 364 419 21,400 -1,388 Descending Fort Worth Center
Tue 12:42:57 AM 33.6619 -96.1181 203° Southwest 364 419 19,600 -1,869 Descending Fort Worth Center
Tue 12:43:58 AM 33.5731 -96.1658 204° Southwest 354 407 17,600 -2,066 Descending Fort Worth Center
Tue 12:44:59 AM 33.4853 -96.2133 204° Southwest 350 403 15,400 -2,164 Descending Fort Worth Center
Tue 12:46:00 AM 33.4003 -96.2600 205° Southwest 339 390 13,200 -2,066 Descending Fort Worth Center
Tue 12:47:01 AM 33.3164 -96.3053 204° Southwest 335 386 11,200 -1,587 Descending Fort Worth Center
Tue 12:48:01 AM 33.2450 -96.3603 213° Southwest 310 357 10,000 -1,190 Descending Fort Worth Center
Tue 12:49:02 AM 33.1953 -96.4375 232° Southwest 272 313 8,800 -1,279 Descending Fort Worth Center
Tue 12:50:03 AM 33.1481 -96.5017 229° Southwest 262 302 7,400 -1,623 Descending Fort Worth Center
Tue 12:51:04 AM 33.0800 -96.5386 204° Southwest 265 305 5,500 -1,475 Descending Fort Worth Center
Tue 12:52:05 AM 33.0108 -96.5767 205° Southwest 272 313 4,400 -1,091 Descending Fort Worth Center
Tue 12:53:05 AM 32.9425 -96.5964 194° South 250 288 3,300 -942 Descending Fort Worth Center
Tue 12:54:06 AM 32.8714 -96.6086 188° South 253 291 2,500 -443 Descending Fort Worth Center
Tue 12:55:07 AM 32.8086 -96.6453 206° Southwest 258 297 2,400 -49 Descending Fort Worth Center
Tue 12:56:08 AM 32.7678 -96.6933 225° Southwest 212 244 2,400  Level Fort Worth Center
Tue 12:57:09 AM 32.7603 -96.7506 261° West 178 205 2,400 -298 Level Fort Worth Center
Tue 12:58:09 AM 32.7886 -96.7900 311° West 151 174 1,800 -694 Descending Fort Worth Center
Tue 12:59:10 AM 32.8153 -96.8214 315° West 136 157 1,000 -590 Descending Fort Worth Center
Tue 01:00:11 AM 32.8356 -96.8450 316° Northwest 132 152 600 -393 Descending Fort Worth Center

Login

Don't have an account? Register now (free) for customized features, flight alerts, and more!